Time;durP1;ratioP1;P1;durP2;ratioP2;P2;SDS_P1;SDS_P2;PMS_P1;PMS_P2;Temp;Humidity;BMP_temperature;BMP_pressure;BME280_temperature;BME280_humidity;BME280_pressure;Samples;Min_cycle;Max_cycle;Signal;HPM_P1;HPM_P2
2021/05/03 00:00:47;;;;;;;8.40;5.38;;;3.90;99.90;;;;;;5080407;28;20041;-70
2021/05/03 00:03:13;;;;;;;7.97;5.47;;;3.90;99.90;;;;;;5081892;28;20079;-71
2021/05/03 00:05:45;;;;;;;8.07;4.85;;;3.90;99.90;;;;;;5084408;28;20097;-70
2021/05/03 00:08:14;;;;;;;6.25;5.15;;;3.90;99.90;;;;;;5068748;28;20546;-70
2021/05/03 00:10:40;;;;;;;7.13;5.75;;;4.00;99.90;;;;;;5073500;28;20056;-69
2021/05/03 00:13:06;;;;;;;9.32;5.18;;;4.00;99.90;;;;;;5066953;28;20056;-70
2021/05/03 00:15:32;;;;;;;11.20;6.00;;;4.00;99.90;;;;;;5082917;28;20218;-70
2021/05/03 00:17:57;;;;;;;7.50;4.95;;;4.00;99.90;;;;;;5083089;28;20044;-69
2021/05/03 00:20:24;;;;;;;8.15;5.97;;;3.90;99.90;;;;;;5082854;28;20423;-69
2021/05/03 00:22:50;;;;;;;8.52;5.45;;;3.90;99.90;;;;;;5083305;28;20068;-69
2021/05/03 00:25:15;;;;;;;7.80;4.95;;;4.00;99.90;;;;;;5082282;28;20070;-69
2021/05/03 00:27:41;;;;;;;11.60;5.85;;;4.00;99.90;;;;;;5071753;28;20052;-69
2021/05/03 00:30:07;;;;;;;10.27;5.07;;;3.90;99.90;;;;;;5077015;28;20127;-69
2021/05/03 00:32:33;;;;;;;8.45;5.35;;;3.90;99.90;;;;;;5073239;28;20079;-69
2021/05/03 00:34:59;;;;;;;13.25;5.32;;;3.80;99.90;;;;;;5083067;28;20500;-69
2021/05/03 00:37:25;;;;;;;10.25;5.28;;;3.80;99.90;;;;;;5083058;28;20198;-69
2021/05/03 00:39:50;;;;;;;7.50;5.38;;;3.80;99.90;;;;;;5082000;28;20048;-70
2021/05/03 00:42:16;;;;;;;8.65;5.53;;;3.80;99.90;;;;;;5070227;28;20048;-69
2021/05/03 00:44:44;;;;;;;8.77;5.90;;;3.70;99.90;;;;;;5075984;28;20068;-69
2021/05/03 00:47:10;;;;;;;11.00;6.63;;;3.70;99.90;;;;;;5082800;28;20101;-69
2021/05/03 00:49:36;;;;;;;10.00;6.68;;;3.70;99.90;;;;;;5082604;28;20040;-70
2021/05/03 00:52:02;;;;;;;9.40;6.28;;;3.70;99.90;;;;;;5075119;28;20041;-70
2021/05/03 00:54:28;;;;;;;8.52;6.00;;;3.70;99.90;;;;;;5079925;28;20066;-69
2021/05/03 00:56:54;;;;;;;8.50;6.30;;;3.70;99.90;;;;;;5082604;28;20060;-69
2021/05/03 00:59:20;;;;;;;9.77;6.32;;;3.60;99.90;;;;;;5082783;28;20106;-69
2021/05/03 01:01:46;;;;;;;11.77;7.22;;;3.60;99.90;;;;;;5083759;28;20044;-70
2021/05/03 01:04:12;;;;;;;8.43;6.68;;;3.60;99.90;;;;;;5081185;28;20041;-69
2021/05/03 01:06:38;;;;;;;9.50;6.00;;;3.70;99.90;;;;;;5082415;28;20091;-69
2021/05/03 01:09:05;;;;;;;11.98;6.10;;;3.80;99.90;;;;;;5070242;28;20049;-69
2021/05/03 01:11:31;;;;;;;8.20;5.70;;;3.90;99.90;;;;;;5080408;28;20048;-70
2021/05/03 01:13:56;;;;;;;10.02;5.00;;;4.00;99.90;;;;;;5081989;28;20048;-69
2021/05/03 01:16:22;;;;;;;11.48;4.88;;;4.10;99.90;;;;;;5082451;28;20040;-69
2021/05/03 01:18:48;;;;;;;8.43;4.85;;;4.30;99.90;;;;;;5082348;28;20064;-69
2021/05/03 01:21:25;;;;;;;8.82;5.30;;;4.30;99.90;;;;;;5082456;28;20072;-69
2021/05/03 01:23:51;;;;;;;8.27;4.35;;;4.30;99.90;;;;;;5077417;28;20052;-70
2021/05/03 01:26:17;;;;;;;10.23;5.20;;;4.30;99.90;;;;;;5069075;28;20029;-69
2021/05/03 01:28:43;;;;;;;5.07;4.22;;;4.20;99.90;;;;;;5081768;28;20522;-69
2021/05/03 01:31:09;;;;;;;6.78;4.55;;;4.20;99.90;;;;;;5082376;28;20108;-69
2021/05/03 01:33:35;;;;;;;7.78;4.93;;;4.10;99.90;;;;;;5080115;28;20041;-69
2021/05/03 01:36:01;;;;;;;4.50;3.92;;;4.10;99.90;;;;;;5082302;28;20041;-69
2021/05/03 01:38:26;;;;;;;9.25;4.30;;;4.10;99.90;;;;;;5082368;28;20480;-69
2021/05/03 01:40:52;;;;;;;5.88;4.53;;;4.00;99.90;;;;;;5082130;28;20164;-70
2021/05/03 01:43:21;;;;;;;6.63;4.22;;;4.00;99.90;;;;;;5085922;28;20132;-71
2021/05/03 01:45:49;;;;;;;7.85;4.60;;;4.00;99.90;;;;;;5092452;28;20066;-71
2021/05/03 01:48:19;;;;;;;6.93;4.88;;;4.00;99.90;;;;;;5086266;28;20045;-70
2021/05/03 01:50:45;;;;;;;5.60;4.28;;;4.00;99.90;;;;;;5086187;28;20044;-70
2021/05/03 01:53:12;;;;;;;5.78;4.03;;;4.10;99.90;;;;;;5086259;28;20033;-70
2021/05/03 01:55:38;;;;;;;7.43;4.88;;;4.10;99.90;;;;;;5083622;28;20036;-70
2021/05/03 01:58:06;;;;;;;7.93;5.80;;;4.10;99.90;;;;;;5085745;28;20057;-70
2021/05/03 02:00:33;;;;;;;11.43;5.07;;;4.00;99.90;;;;;;5085480;28;20044;-70
2021/05/03 02:02:59;;;;;;;7.20;5.53;;;4.10;99.90;;;;;;5072411;28;20040;-69
2021/05/03 02:05:26;;;;;;;8.02;5.15;;;4.10;99.90;;;;;;5085852;28;20055;-70
2021/05/03 02:08:03;;;;;;;7.60;5.05;;;4.10;99.90;;;;;;5086400;28;20032;-71
2021/05/03 02:10:30;;;;;;;10.70;6.73;;;4.10;99.90;;;;;;5077326;28;20059;-70
2021/05/03 02:12:56;;;;;;;9.23;6.18;;;4.10;99.90;;;;;;5084130;28;20294;-70
2021/05/03 02:15:23;;;;;;;7.50;5.10;;;4.10;99.90;;;;;;5082527;28;20040;-71
2021/05/03 02:17:49;;;;;;;7.38;5.28;;;4.20;99.90;;;;;;5078615;28;20045;-71
2021/05/03 02:20:16;;;;;;;7.80;5.63;;;4.10;99.90;;;;;;5077077;28;20044;-70
2021/05/03 02:22:43;;;;;;;9.25;5.97;;;4.10;99.90;;;;;;5083297;28;20051;-70
2021/05/03 02:25:10;;;;;;;7.28;5.40;;;4.10;99.90;;;;;;5085067;28;20048;-70
2021/05/03 02:27:36;;;;;;;10.50;6.18;;;4.10;99.90;;;;;;5085441;28;20492;-70
2021/05/03 02:30:04;;;;;;;8.45;5.85;;;4.10;99.90;;;;;;5084984;28;20041;-70
2021/05/03 02:32:31;;;;;;;7.32;5.80;;;4.10;99.90;;;;;;5077462;28;20051;-70
2021/05/03 02:34:56;;;;;;;7.28;5.72;;;4.20;99.90;;;;;;5081438;28;20063;-70
2021/05/03 02:37:24;;;;;;;10.15;5.95;;;4.20;99.90;;;;;;5085153;28;20520;-70
2021/05/03 02:39:50;;;;;;;8.50;6.60;;;4.20;99.90;;;;;;5083654;28;20381;-70
2021/05/03 02:42:16;;;;;;;9.43;5.95;;;4.20;99.90;;;;;;5084998;28;20073;-70
2021/05/03 02:44:43;;;;;;;10.13;5.97;;;4.20;99.90;;;;;;5084858;28;20112;-70
2021/05/03 02:47:09;;;;;;;9.43;6.37;;;4.30;99.90;;;;;;5083405;28;20040;-70
2021/05/03 02:49:35;;;;;;;11.55;5.80;;;4.40;99.90;;;;;;5085010;28;20047;-70
2021/05/03 02:52:02;;;;;;;8.27;5.53;;;4.50;99.90;;;;;;5075714;28;20044;-70
2021/05/03 02:54:29;;;;;;;9.82;6.15;;;4.50;99.90;;;;;;5083682;28;20054;-70
2021/05/03 02:56:54;;;;;;;9.88;6.13;;;4.40;99.90;;;;;;5080988;28;20060;-70
2021/05/03 02:59:20;;;;;;;10.50;6.35;;;4.40;99.90;;;;;;5084892;28;20040;-69
2021/05/03 03:01:46;;;;;;;10.98;6.50;;;4.40;99.90;;;;;;5085020;28;20105;-69
2021/05/03 03:04:12;;;;;;;11.35;6.07;;;4.40;99.90;;;;;;5084573;28;20040;-69
2021/05/03 03:06:38;;;;;;;7.22;5.63;;;4.40;99.90;;;;;;5084283;28;20565;-69
2021/05/03 03:09:05;;;;;;;9.77;5.50;;;4.50;99.90;;;;;;5084152;28;20075;-69
2021/05/03 03:11:31;;;;;;;7.38;5.95;;;4.50;99.90;;;;;;5073933;28;20045;-69
2021/05/03 03:13:57;;;;;;;10.88;5.85;;;4.40;99.90;;;;;;5083359;28;20119;-69
2021/05/03 03:16:25;;;;;;;9.75;6.35;;;4.40;99.90;;;;;;5084119;28;20121;-69
2021/05/03 03:18:51;;;;;;;;;;;4.40;99.90;;;;;;5077064;28;20122;-70
2021/05/03 03:21:17;;;;;;;8.80;5.93;;;4.40;99.90;;;;;;5083488;28;19920;-70
2021/05/03 03:23:44;;;;;;;11.38;6.40;;;4.40;99.90;;;;;;5084057;28;20049;-69
2021/05/03 03:26:09;;;;;;;8.52;5.47;;;4.50;99.90;;;;;;5082687;28;20086;-70
2021/05/03 03:28:35;;;;;;;10.65;6.40;;;4.50;99.90;;;;;;5075943;28;20044;-71
2021/05/03 03:31:01;;;;;;;10.25;6.07;;;4.50;99.90;;;;;;5083367;28;20056;-70
2021/05/03 03:33:27;;;;;;;10.10;6.45;;;4.50;99.90;;;;;;5083881;28;20044;-70
2021/05/03 03:35:52;;;;;;;11.98;6.70;;;4.50;99.90;;;;;;5083619;28;20553;-69
2021/05/03 03:38:19;;;;;;;8.20;5.95;;;4.50;99.90;;;;;;5083942;28;20049;-69
2021/05/03 03:40:45;;;;;;;11.45;6.63;;;4.50;99.90;;;;;;5083857;28;20104;-69
2021/05/03 03:43:11;;;;;;;13.25;7.00;;;4.50;99.90;;;;;;5083334;28;20048;-69
2021/05/03 03:45:37;;;;;;;14.57;6.68;;;4.50;99.90;;;;;;5076560;28;20041;-70
2021/05/03 03:48:05;;;;;;;10.60;7.40;;;4.50;99.90;;;;;;5076657;28;20055;-71
2021/05/03 03:50:30;;;;;;;11.70;7.97;;;4.50;99.90;;;;;;5083198;28;20064;-71
2021/05/03 03:52:57;;;;;;;11.73;7.47;;;4.50;99.90;;;;;;5084260;28;20049;-71
2021/05/03 03:55:23;;;;;;;13.25;7.95;;;4.60;99.90;;;;;;5083091;28;20055;-70
2021/05/03 03:57:48;;;;;;;14.10;8.35;;;4.60;99.90;;;;;;5083530;28;20048;-73
2021/05/03 04:00:15;;;;;;;10.48;7.43;;;4.60;99.90;;;;;;5078183;28;20048;-72
2021/05/03 04:02:40;;;;;;;9.60;7.40;;;4.60;99.90;;;;;;5082623;28;20046;-72
2021/05/03 04:10:18;;;;;;;12.80;8.65;;;4.70;99.90;;;;;;5082824;28;20108;-70
2021/05/03 04:12:59;;;;;;;12.27;8.60;;;4.70;99.90;;;;;;5079684;28;20036;-73
2021/05/03 04:24:06;;;;;;;12.63;9.15;;;4.70;99.90;;;;;;5080834;28;20064;-71
2021/05/03 04:26:32;;;;;;;16.02;10.30;;;4.70;99.90;;;;;;5081030;28;20128;-72
2021/05/03 04:28:58;;;;;;;15.57;9.43;;;4.70;99.90;;;;;;5081268;28;20053;-71
2021/05/03 04:31:24;;;;;;;16.60;10.45;;;4.80;99.90;;;;;;5081209;28;20075;-71
2021/05/03 04:33:50;;;;;;;16.67;9.70;;;4.80;99.90;;;;;;5081175;28;20056;-71
2021/05/03 04:36:17;;;;;;;13.13;9.95;;;4.80;99.90;;;;;;5080967;28;20049;-71
2021/05/03 04:38:43;;;;;;;18.98;11.65;;;4.80;99.90;;;;;;5080790;28;20062;-70
2021/05/03 04:41:09;;;;;;;14.70;9.90;;;4.90;99.90;;;;;;5080119;28;20076;-70
2021/05/03 04:43:36;;;;;;;17.35;11.23;;;4.90;99.90;;;;;;5079138;28;20166;-69
2021/05/03 04:46:02;;;;;;;19.77;12.35;;;4.90;99.90;;;;;;5060779;28;20049;-69
2021/05/03 04:48:28;;;;;;;19.25;12.77;;;4.90;99.90;;;;;;5073439;28;20052;-69
2021/05/03 04:50:55;;;;;;;19.77;13.27;;;4.90;99.90;;;;;;5080742;28;20098;-69
2021/05/03 04:53:21;;;;;;;22.95;13.25;;;4.90;99.90;;;;;;5080809;28;20557;-69
2021/05/03 04:55:47;;;;;;;21.55;13.23;;;4.90;99.90;;;;;;5080383;28;20055;-68
2021/05/03 04:58:13;;;;;;;18.08;13.35;;;4.90;99.90;;;;;;5080658;28;20139;-68
2021/05/03 05:00:39;;;;;;;26.65;14.88;;;4.90;99.90;;;;;;5081379;28;20114;-69
2021/05/03 05:03:05;;;;;;;20.40;14.07;;;4.90;99.90;;;;;;5063609;28;20041;-69
2021/05/03 05:05:31;;;;;;;26.23;15.68;;;4.90;99.90;;;;;;5081516;28;20055;-69
2021/05/03 05:07:57;;;;;;;20.20;13.75;;;4.90;99.90;;;;;;5068050;28;20036;-69
2021/05/03 05:10:22;;;;;;;25.63;15.15;;;4.90;99.90;;;;;;5082072;28;20379;-69
2021/05/03 05:12:49;;;;;;;26.10;14.63;;;4.90;99.90;;;;;;5076611;28;20036;-69
2021/05/03 05:15:16;;;;;;;28.33;15.13;;;4.90;99.90;;;;;;5070848;28;20060;-68
2021/05/03 05:17:42;;;;;;;38.70;15.50;;;4.90;99.90;;;;;;5066758;28;20053;-68
2021/05/03 05:20:08;;;;;;;25.20;13.88;;;4.90;99.90;;;;;;5074919;28;20131;-69
2021/05/03 05:22:36;;;;;;;32.13;14.73;;;4.80;99.90;;;;;;5067990;28;20052;-69
2021/05/03 05:25:04;;;;;;;29.75;14.43;;;4.70;99.90;;;;;;5085432;28;20052;-69
2021/05/03 05:27:30;;;;;;;19.93;12.93;;;4.60;99.90;;;;;;5075353;28;20068;-68
2021/05/03 05:29:56;;;;;;;22.27;11.10;;;4.40;99.90;;;;;;5082471;28;20789;-67
2021/05/03 05:32:21;;;;;;;11.73;8.63;;;4.30;99.90;;;;;;5085143;28;20040;-67
2021/05/03 05:34:47;;;;;;;11.52;8.10;;;4.20;99.90;;;;;;5072934;28;20108;-68
2021/05/03 05:37:13;;;;;;;14.00;9.68;;;4.10;99.90;;;;;;5069520;28;20085;-67
2021/05/03 05:39:39;;;;;;;18.35;11.20;;;4.00;99.90;;;;;;5069938;28;20695;-67
2021/05/03 05:42:06;;;;;;;17.10;12.07;;;4.00;99.90;;;;;;5082551;28;20044;-67
2021/05/03 05:44:32;;;;;;;24.13;14.23;;;4.00;99.90;;;;;;5079880;28;20072;-68
2021/05/03 05:46:58;;;;;;;20.85;13.18;;;4.00;99.90;;;;;;5080101;28;20067;-68
2021/05/03 05:49:24;;;;;;;14.88;10.02;;;4.00;99.90;;;;;;5084388;28;20047;-68
2021/05/03 05:51:49;;;;;;;20.20;12.55;;;4.00;99.90;;;;;;5085627;28;20049;-69
2021/05/03 05:54:15;;;;;;;22.08;13.57;;;4.10;99.90;;;;;;5085186;28;20047;-68
2021/05/03 05:56:41;;;;;;;22.27;13.20;;;4.10;99.90;;;;;;5085591;28;20120;-69
2021/05/03 05:59:07;;;;;;;20.17;12.52;;;4.20;99.90;;;;;;5085265;28;20598;-67
2021/05/03 06:01:33;;;;;;;16.55;10.50;;;4.20;99.90;;;;;;5082272;28;20040;-68
2021/05/03 06:03:59;;;;;;;10.57;7.68;;;4.20;99.90;;;;;;5083831;28;20044;-69
2021/05/03 06:06:25;;;;;;;14.73;9.60;;;4.20;99.90;;;;;;5085426;28;20047;-68
2021/05/03 06:08:50;;;;;;;17.42;9.88;;;4.20;99.90;;;;;;5080996;28;20045;-69
2021/05/03 06:11:16;;;;;;;14.27;9.20;;;4.20;99.90;;;;;;5073250;28;20068;-68
2021/05/03 06:13:42;;;;;;;17.02;8.85;;;4.30;99.90;;;;;;5075623;28;20068;-68
2021/05/03 06:16:08;;;;;;;9.32;7.20;;;4.30;99.90;;;;;;5084929;28;20048;-67
2021/05/03 06:18:34;;;;;;;12.27;7.40;;;4.40;99.90;;;;;;5082487;28;20068;-66
2021/05/03 06:21:00;;;;;;;10.40;6.20;;;4.40;99.90;;;;;;5079752;28;20037;-68
2021/05/03 06:23:26;;;;;;;12.82;7.10;;;4.50;99.90;;;;;;5084516;28;20047;-67
2021/05/03 06:25:53;;;;;;;9.70;6.70;;;4.50;99.90;;;;;;5084458;28;20054;-68
2021/05/03 06:28:18;;;;;;;9.27;6.57;;;4.60;99.90;;;;;;5080967;28;20048;-66
2021/05/03 06:30:46;;;;;;;8.07;5.30;;;4.70;99.90;;;;;;5075875;28;20052;-67
2021/05/03 06:33:12;;;;;;;6.18;5.00;;;4.70;99.90;;;;;;5069730;28;20108;-67
2021/05/03 06:35:38;;;;;;;10.73;5.63;;;4.80;99.90;;;;;;5077461;28;20041;-67
2021/05/03 06:38:06;;;;;;;7.35;5.10;;;4.80;99.90;;;;;;5068773;28;20049;-67
2021/05/03 06:40:32;;;;;;;18.80;6.72;;;4.90;99.90;;;;;;5082654;28;20059;-66
2021/05/03 06:42:58;;;;;;;8.77;6.35;;;5.00;99.90;;;;;;5074134;28;20048;-67
2021/05/03 06:45:23;;;;;;;9.35;6.45;;;5.10;99.90;;;;;;5072186;28;20048;-67
2021/05/03 06:47:50;;;;;;;9.20;6.72;;;5.20;99.90;;;;;;5075177;28;20045;-67
2021/05/03 06:50:17;;;;;;;7.40;5.90;;;5.20;99.90;;;;;;5074254;28;20140;-67
2021/05/03 06:52:44;;;;;;;8.73;7.30;;;5.30;99.90;;;;;;5077237;28;20071;-67
2021/05/03 06:55:14;;;;;;;8.43;6.30;;;5.30;99.90;;;;;;5080926;28;20390;-67
2021/05/03 06:57:43;;;;;;;7.30;6.10;;;5.30;99.90;;;;;;5069324;28;20056;-67
2021/05/03 07:00:12;;;;;;;11.48;7.53;;;5.40;99.90;;;;;;5081945;28;20052;-68
2021/05/03 07:02:39;;;;;;;10.40;8.20;;;5.40;99.90;;;;;;5084251;28;20083;-66
2021/05/03 07:05:05;;;;;;;11.50;8.52;;;5.40;99.90;;;;;;5078208;28;20045;-67
2021/05/03 07:07:31;;;;;;;13.55;10.10;;;5.50;99.90;;;;;;5078937;28;20056;-67
2021/05/03 07:09:57;;;;;;;15.55;9.80;;;5.60;99.90;;;;;;5074140;28;20044;-67
2021/05/03 07:12:23;;;;;;;15.52;10.55;;;5.70;99.90;;;;;;5081658;28;20119;-66
2021/05/03 07:14:50;;;;;;;15.70;10.45;;;5.70;99.90;;;;;;5083883;28;20075;-66
2021/05/03 07:17:16;;;;;;;15.32;11.25;;;5.80;99.90;;;;;;5082397;28;20064;-66
2021/05/03 07:19:43;;;;;;;18.67;12.70;;;5.90;99.90;;;;;;5076843;28;20092;-67
2021/05/03 07:25:14;;;;;;;19.95;14.43;;;5.90;99.90;;;;;;5089543;28;20626;-67
2021/05/03 07:27:41;;;;;;;22.88;16.10;;;5.90;99.90;;;;;;5075768;28;20047;-66
2021/05/03 07:30:10;;;;;;;22.00;16.15;;;5.90;99.90;;;;;;5080435;28;20072;-61
2021/05/03 07:32:37;;;;;;;21.25;13.50;;;6.00;99.90;;;;;;5080465;28;20135;-63
2021/05/03 07:35:08;;;;;;;18.15;13.02;;;6.30;99.90;;;;;;5076005;28;20044;-63
2021/05/03 07:37:34;;;;;;;19.20;13.55;;;6.30;99.90;;;;;;5078466;28;20049;-64
2021/05/03 07:40:00;;;;;;;20.35;15.20;;;6.40;99.90;;;;;;5081616;28;20420;-62
2021/05/03 07:42:26;;;;;;;22.90;15.82;;;6.40;99.90;;;;;;5081896;28;20032;-63
2021/05/03 07:44:52;;;;;;;21.58;15.93;;;6.50;99.90;;;;;;5082602;28;20064;-62
2021/05/03 07:47:17;;;;;;;24.77;17.40;;;6.50;99.90;;;;;;5079668;28;20416;-65
2021/05/03 07:49:44;;;;;;;29.67;21.10;;;6.50;99.90;;;;;;5073867;28;20048;-65
2021/05/03 07:52:09;;;;;;;32.70;21.38;;;6.40;99.90;;;;;;5081875;28;20040;-65
2021/05/03 07:54:35;;;;;;;26.88;17.98;;;6.50;99.90;;;;;;5077103;28;20040;-63
2021/05/03 07:57:02;;;;;;;33.35;22.55;;;6.40;99.90;;;;;;5078476;28;20044;-64
2021/05/03 07:59:28;;;;;;;39.97;24.73;;;6.30;99.90;;;;;;5080334;28;20069;-64
2021/05/03 08:01:54;;;;;;;34.05;22.90;;;6.20;99.90;;;;;;5077089;28;20040;-64
2021/05/03 08:04:20;;;;;;;40.88;24.83;;;6.10;99.90;;;;;;5079338;28;20102;-65
2021/05/03 08:06:47;;;;;;;43.20;25.13;;;6.00;99.90;;;;;;5073903;28;20044;-65
2021/05/03 08:09:13;;;;;;;58.67;30.13;;;6.00;99.90;;;;;;5083845;28;20299;-65
2021/05/03 08:11:44;;;;;;;42.85;28.02;;;6.00;99.90;;;;;;5082734;28;20075;-66
2021/05/03 08:14:14;;;;;;;51.03;30.30;;;6.00;99.90;;;;;;5079629;28;20033;-65
2021/05/03 08:16:40;;;;;;;53.90;31.40;;;6.00;99.90;;;;;;5080380;28;20075;-66
2021/05/03 08:19:06;;;;;;;59.35;33.55;;;6.10;99.90;;;;;;5081932;28;20045;-65
2021/05/03 08:21:32;;;;;;;59.85;31.73;;;6.10;99.90;;;;;;5080223;28;20044;-66
2021/05/03 08:23:58;;;;;;;55.28;29.83;;;6.00;99.90;;;;;;5080290;28;20045;-66
2021/05/03 08:26:24;;;;;;;59.47;31.08;;;6.00;99.90;;;;;;5082215;28;20539;-65
2021/05/03 08:28:50;;;;;;;53.25;29.15;;;6.10;99.90;;;;;;5077705;28;20071;-65
2021/05/03 08:31:16;;;;;;;64.20;34.13;;;6.00;99.90;;;;;;5079724;28;20133;-65
2021/05/03 08:33:42;;;;;;;65.05;33.80;;;6.10;99.90;;;;;;5081228;28;20056;-66
2021/05/03 08:36:08;;;;;;;67.22;35.92;;;6.10;99.90;;;;;;5074726;28;20044;-66
2021/05/03 08:38:34;;;;;;;66.90;34.50;;;6.10;99.90;;;;;;5080365;28;20799;-65
2021/05/03 08:41:02;;;;;;;60.35;31.40;;;6.00;99.90;;;;;;5077455;28;20045;-66
2021/05/03 08:43:30;;;;;;;87.40;34.30;;;6.00;99.90;;;;;;5081388;28;20160;-66
2021/05/03 08:45:56;;;;;;;71.70;29.10;;;5.70;99.90;;;;;;5080226;28;20036;-65
2021/05/03 08:48:34;;;;;;;30.45;18.23;;;5.20;99.90;;;;;;5080490;28;20063;-65
2021/05/03 08:53:36;;;;;;;77.65;38.85;;;4.80;99.90;;;;;;5081263;28;20070;-65
2021/05/03 08:56:03;;;;;;;81.68;38.25;;;4.80;99.90;;;;;;5078008;28;20052;-68
2021/05/03 08:58:29;;;;;;;88.38;40.88;;;4.90;99.90;;;;;;5068391;28;20055;-68
2021/05/03 09:00:55;;;;;;;114.28;49.67;;;5.00;99.90;;;;;;5081722;28;20104;-66
2021/05/03 09:03:22;;;;;;;110.85;47.88;;;5.00;99.90;;;;;;5077050;28;20045;-67
2021/05/03 09:05:48;;;;;;;122.13;50.00;;;5.10;99.90;;;;;;5078672;28;20047;-66
2021/05/03 09:08:24;;;;;;;132.73;53.38;;;5.20;99.90;;;;;;5082340;28;20040;-66
2021/05/03 09:10:51;;;;;;;148.65;54.38;;;5.20;99.90;;;;;;5082518;28;20041;-65
2021/05/03 09:13:25;;;;;;;73.43;39.05;;;5.30;99.90;;;;;;5082359;28;20045;-66
2021/05/03 09:15:51;;;;;;;75.05;38.85;;;5.40;99.90;;;;;;5081601;28;20555;-66
2021/05/03 09:18:18;;;;;;;48.92;28.95;;;5.50;99.90;;;;;;5081878;28;20051;-67
2021/05/03 09:20:43;;;;;;;47.78;27.45;;;5.60;99.90;;;;;;5080203;28;20044;-67
2021/05/03 09:23:30;;;;;;;40.85;24.60;;;5.60;99.90;;;;;;5082113;28;20045;-67
2021/05/03 09:25:55;;;;;;;32.20;20.60;;;5.70;99.90;;;;;;5081173;28;20048;-68
2021/05/03 09:28:28;;;;;;;33.47;19.88;;;5.80;99.90;;;;;;5079126;28;20162;-68
2021/05/03 09:30:57;;;;;;;45.47;27.23;;;5.90;99.90;;;;;;5081076;28;20037;-69
2021/05/03 09:33:28;;;;;;;35.67;22.98;;;6.20;99.90;;;;;;5079170;28;20116;-69
2021/05/03 09:36:13;;;;;;;48.28;29.08;;;6.50;99.90;;;;;;5078079;28;20104;-69
2021/05/03 09:38:40;;;;;;;47.50;28.98;;;6.80;99.90;;;;;;5075071;28;20100;-69
2021/05/03 09:41:15;;;;;;;;;;;7.20;99.90;;;;;;5082469;28;20334;-68
2021/05/03 09:43:44;;;;;;;42.17;28.85;;;7.40;99.90;;;;;;5081664;28;19931;-69
2021/05/03 09:46:34;;;;;;;38.22;24.92;;;7.80;99.90;;;;;;5078060;28;20044;-69
2021/05/03 09:49:05;;;;;;;25.38;17.95;;;7.90;99.90;;;;;;5081305;28;20057;-70
2021/05/03 09:51:41;;;;;;;13.63;11.32;;;8.00;99.90;;;;;;5081382;28;20088;-69
2021/05/03 09:54:09;;;;;;;14.25;9.30;;;8.00;99.90;;;;;;5080417;28;20043;-68
2021/05/03 09:56:47;;;;;;;14.45;10.63;;;8.10;99.90;;;;;;5081748;28;20166;-68
2021/05/03 09:59:25;;;;;;;12.63;10.70;;;8.30;99.90;;;;;;5079233;28;20408;-68
2021/05/03 10:02:17;;;;;;;14.65;11.60;;;8.50;99.90;;;;;;5082030;28;20048;-67
2021/05/03 10:07:35;;;;;;;19.60;14.77;;;8.90;99.90;;;;;;5083184;28;20123;-68
2021/05/03 10:10:13;;;;;;;23.42;16.90;;;9.00;99.90;;;;;;5083844;28;20048;-67
2021/05/03 10:12:39;;;;;;;24.85;19.52;;;9.10;99.90;;;;;;5081789;28;20041;-66
2021/05/03 10:15:10;;;;;;;28.13;20.70;;;8.90;99.90;;;;;;5082894;28;20070;-66
2021/05/03 10:17:38;;;;;;;29.77;20.60;;;8.50;99.90;;;;;;5080247;28;20052;-66
2021/05/03 10:20:04;;;;;;;;;;;8.30;99.90;;;;;;5086122;28;20508;-66
2021/05/03 10:22:30;;;;;;;32.17;22.88;;;8.20;99.90;;;;;;5079574;28;20008;-61
2021/05/03 10:25:04;;;;;;;39.58;24.50;;;8.10;99.90;;;;;;5083471;28;20059;-62
2021/05/03 10:27:37;;;;;;;39.95;27.85;;;7.90;99.90;;;;;;5083236;28;20082;-68
2021/05/03 10:30:14;;;;;;;39.67;26.77;;;7.60;99.90;;;;;;5081624;28;20052;-64
2021/05/03 10:32:55;;;;;;;46.97;31.70;;;7.50;99.90;;;;;;5845447;23;20025;-59
2021/05/03 10:35:26;;;;;;;44.15;29.70;;;7.70;99.90;;;;;;5015598;28;20061;-59
2021/05/03 10:37:53;;;;;;;43.38;32.70;;;7.80;99.90;;;;;;5025465;28;20712;-59
2021/05/03 10:40:22;;;;;;;48.05;35.30;;;8.00;99.90;;;;;;5017015;28;20603;-59
2021/05/03 10:43:07;;;;;;;43.40;31.20;;;8.20;99.90;;;;;;5017991;28;20508;-59
2021/05/03 10:51:49;;;;;;;46.35;34.65;;;9.00;99.90;;;;;;5019416;28;20042;-60
2021/05/03 10:57:01;;;;;;;42.22;31.90;;;9.10;99.90;;;;;;5023215;28;20046;-60
2021/05/03 10:59:47;;;;;;;45.53;32.55;;;9.00;99.90;;;;;;5018598;28;20042;-60
2021/05/03 11:02:15;;;;;;;41.22;29.35;;;8.90;99.90;;;;;;5021188;28;20662;-60
2021/05/03 11:05:26;;;;;;;46.22;32.85;;;8.90;99.90;;;;;;5023564;28;20042;-59
2021/05/03 11:08:21;;;;;;;45.88;32.38;;;8.90;99.90;;;;;;5026949;28;20092;-60
2021/05/03 11:11:08;;;;;;;51.22;35.92;;;9.10;99.90;;;;;;5016843;28;20057;-61
2021/05/03 11:13:37;;;;;;;37.33;26.70;;;9.60;99.90;;;;;;5024045;28;20045;-60
2021/05/03 11:16:24;;;;;;;39.70;29.85;;;9.70;99.90;;;;;;5022311;28;20180;-60
2021/05/03 11:18:51;;;;;;;35.63;27.58;;;9.90;99.90;;;;;;5018708;28;20049;-62
2021/05/03 11:21:18;;;;;;;35.45;25.92;;;10.10;99.90;;;;;;5033334;28;20049;-63
2021/05/03 11:23:45;;;;;;;27.15;21.40;;;10.20;99.90;;;;;;5019302;28;20041;-63
2021/05/03 11:26:27;;;;;;;37.08;24.52;;;10.20;99.90;;;;;;5025621;28;20041;-63
2021/05/03 11:29:04;;;;;;;30.65;24.92;;;10.20;99.90;;;;;;5025369;28;20057;-64
2021/05/03 11:31:32;;;;;;;31.67;24.47;;;10.40;99.90;;;;;;5021826;28;20124;-62
2021/05/03 11:34:12;;;;;;;34.33;25.70;;;10.30;99.90;;;;;;5021510;28;20061;-62
2021/05/03 11:36:43;;;;;;;32.67;24.80;;;10.10;99.90;;;;;;5023501;28;20038;-62
2021/05/03 11:39:33;;;;;;;22.20;18.73;;;10.10;99.90;;;;;;5022045;28;20045;-62
2021/05/03 11:44:56;;;;;;;20.70;17.77;;;11.20;99.90;;;;;;5004233;28;20449;-62
2021/05/03 11:47:31;;;;;;;25.77;17.92;;;11.60;99.90;;;;;;4997265;28;20046;-62
2021/05/03 11:49:57;;;;;;;21.10;17.05;;;12.00;99.90;;;;;;5000135;28;20100;-62
2021/05/03 11:52:31;;;;;;;23.00;15.52;;;11.60;99.90;;;;;;5000558;28;20057;-61
2021/05/03 11:55:21;;;;;;;22.90;17.02;;;10.90;99.90;;;;;;5004589;28;20116;-61
2021/05/03 11:57:48;;;;;;;23.58;18.85;;;10.70;99.90;;;;;;5006498;28;20318;-62
2021/05/03 12:00:19;;;;;;;27.35;20.73;;;10.60;99.90;;;;;;5006705;28;20109;-60
2021/05/03 12:02:46;;;;;;;28.15;18.13;;;10.50;99.90;;;;;;5000091;28;20062;-61
2021/05/03 12:05:12;;;;;;;27.60;18.67;;;10.00;99.90;;;;;;4994024;28;20050;-61
2021/05/03 12:07:38;;;;;;;26.83;18.98;;;9.70;99.90;;;;;;5002012;28;20093;-61
2021/05/03 12:10:22;;;;;;;24.17;19.00;;;9.60;99.90;;;;;;5001873;28;20042;-61
2021/05/03 12:12:54;;;;;;;24.75;16.75;;;9.70;99.90;;;;;;4999377;28;20050;-60
2021/05/03 12:15:28;;;;;;;18.63;16.52;;;9.60;99.90;;;;;;5001108;28;20126;-61
2021/05/03 12:18:02;;;;;;;28.02;19.05;;;9.70;99.90;;;;;;4998663;28;20106;-60
2021/05/03 12:20:29;;;;;;;25.23;17.58;;;9.70;99.90;;;;;;5005934;28;20065;-61
2021/05/03 12:22:56;;;;;;;25.63;15.13;;;9.70;99.90;;;;;;5019528;28;20055;-61
2021/05/03 12:25:23;;;;;;;24.52;18.00;;;10.00;99.90;;;;;;5020536;28;20042;-60
2021/05/03 12:27:50;;;;;;;23.38;14.88;;;10.00;99.90;;;;;;5020177;28;20038;-60
2021/05/03 12:30:16;;;;;;;19.38;13.50;;;9.80;99.90;;;;;;5022206;28;20505;-60
2021/05/03 12:32:43;;;;;;;12.38;9.45;;;9.60;99.90;;;;;;5019841;28;20046;-61
2021/05/03 12:35:17;;;;;;;12.10;9.32;;;9.20;99.90;;;;;;5019158;28;20053;-60
2021/05/03 12:37:43;;;;;;;14.52;8.07;;;8.80;99.90;;;;;;5021369;28;20153;-60
2021/05/03 12:40:14;;;;;;;11.07;8.50;;;8.70;99.90;;;;;;5021315;28;20041;-59
2021/05/03 12:42:54;;;;;;;13.30;8.73;;;8.70;99.90;;;;;;5027889;28;20042;-60
2021/05/03 12:45:35;;;;;;;11.25;8.20;;;8.90;99.90;;;;;;5021665;28;20042;-60
2021/05/03 12:56:40;;;;;;;14.50;10.75;;;8.50;99.90;;;;;;5019793;28;20042;-61
2021/05/03 12:59:19;;;;;;;17.35;11.77;;;8.60;99.90;;;;;;5023101;28;20049;-59
2021/05/03 13:04:51;;;;;;;16.83;12.18;;;9.40;99.90;;;;;;5018209;28;20057;-63
2021/05/03 13:24:26;;;;;;;10.00;7.32;;;10.00;99.90;;;;;;4980311;28;20127;-62
2021/05/03 13:29:41;;;;;;;10.25;5.32;;;9.90;99.90;;;;;;4973138;28;20097;-63
2021/05/03 13:32:09;;;;;;;6.30;4.47;;;9.90;99.90;;;;;;4976719;28;20110;-61
2021/05/03 13:34:35;;;;;;;5.60;4.32;;;9.90;99.90;;;;;;4978162;28;20381;-61
2021/05/03 13:37:01;;;;;;;8.05;4.85;;;10.20;99.90;;;;;;4978655;28;20043;-60
2021/05/03 13:39:27;;;;;;;7.43;5.00;;;10.50;99.90;;;;;;4985979;28;20130;-60
2021/05/03 13:41:53;;;;;;;8.35;4.72;;;10.80;99.90;;;;;;4981269;28;20051;-61
2021/05/03 13:44:19;;;;;;;6.72;4.70;;;11.00;99.90;;;;;;4980414;28;20549;-59
2021/05/03 13:46:48;;;;;;;5.18;3.63;;;11.20;99.90;;;;;;4987337;28;20051;-59
2021/05/03 13:49:15;;;;;;;6.10;3.72;;;11.10;99.90;;;;;;5029345;28;20062;-59
2021/05/03 13:51:44;;;;;;;5.65;3.35;;;11.40;99.90;;;;;;5025924;28;20050;-60
2021/05/03 13:54:11;;;;;;;4.72;3.33;;;11.40;99.90;;;;;;5018972;28;20056;-62
2021/05/03 13:56:37;;;;;;;5.70;3.42;;;11.10;99.90;;;;;;5021783;28;20428;-60